sensor_id;sensor_type;location;lat;lon;timestamp;temperature;humidity
49052;DHT22;34866;48.670;18.260;2023-01-23T00:01:27;39.00;2201.60
49052;DHT22;34866;48.670;18.260;2023-01-23T00:03:54;39.10;2201.60
49052;DHT22;34866;48.670;18.260;2023-01-23T00:06:20;39.00;2201.60
49052;DHT22;34866;48.670;18.260;2023-01-23T00:08:48;39.10;2201.60
49052;DHT22;34866;48.670;18.260;2023-01-23T00:11:19;39.10;2201.60
49052;DHT22;34866;48.670;18.260;2023-01-23T00:13:45;39.10;2201.60
49052;DHT22;34866;48.670;18.260;2023-01-23T00:16:19;39.10;2201.60
49052;DHT22;34866;48.670;18.260;2023-01-23T00:18:47;38.90;2201.60
49052;DHT22;34866;48.670;18.260;2023-01-23T00:21:15;38.90;2201.60
49052;DHT22;34866;48.670;18.260;2023-01-23T00:23:46;39.10;2201.60
49052;DHT22;34866;48.670;18.260;2023-01-23T00:26:15;39.10;2201.60
49052;DHT22;34866;48.670;18.260;2023-01-23T00:28:42;39.00;2201.60
49052;DHT22;34866;48.670;18.260;2023-01-23T00:31:15;39.00;2201.60
49052;DHT22;34866;48.670;18.260;2023-01-23T00:33:42;39.10;2201.60
49052;DHT22;34866;48.670;18.260;2023-01-23T00:36:08;39.10;2201.60
49052;DHT22;34866;48.670;18.260;2023-01-23T00:38:34;39.10;2201.60
49052;DHT22;34866;48.670;18.260;2023-01-23T00:41:00;39.20;2201.60
49052;DHT22;34866;48.670;18.260;2023-01-23T00:43:27;39.20;2201.60
49052;DHT22;34866;48.670;18.260;2023-01-23T00:45:53;39.20;2201.60
49052;DHT22;34866;48.670;18.260;2023-01-23T00:48:19;39.20;2201.60
49052;DHT22;34866;48.670;18.260;2023-01-23T00:50:45;39.20;2201.60
49052;DHT22;34866;48.670;18.260;2023-01-23T00:53:11;39.20;2201.60
49052;DHT22;34866;48.670;18.260;2023-01-23T00:55:40;39.20;2201.60
49052;DHT22;34866;48.670;18.260;2023-01-23T00:58:06;39.20;2201.60
49052;DHT22;34866;48.670;18.260;2023-01-23T01:00:33;39.20;2201.60
49052;DHT22;34866;48.670;18.260;2023-01-23T01:03:06;39.20;2201.60
49052;DHT22;34866;48.670;18.260;2023-01-23T01:05:33;39.20;2201.60
49052;DHT22;34866;48.670;18.260;2023-01-23T01:07:58;39.30;2201.60
49052;DHT22;34866;48.670;18.260;2023-01-23T01:10:24;39.30;2201.60
49052;DHT22;34866;48.670;18.260;2023-01-23T01:12:55;39.30;2201.60
49052;DHT22;34866;48.670;18.260;2023-01-23T01:15:21;39.20;2201.60
49052;DHT22;34866;48.670;18.260;2023-01-23T01:17:47;39.20;2201.60
49052;DHT22;34866;48.670;18.260;2023-01-23T01:20:13;39.30;2201.60
49052;DHT22;34866;48.670;18.260;2023-01-23T01:22:38;39.30;2201.60
49052;DHT22;34866;48.670;18.260;2023-01-23T01:25:05;64.00;2201.60
49052;DHT22;34866;48.670;18.260;2023-01-23T01:27:31;64.00;2201.60
49052;DHT22;34866;48.670;18.260;2023-01-23T01:29:57;64.00;2201.60
49052;DHT22;34866;48.670;18.260;2023-01-23T01:32:23;39.30;2201.60
49052;DHT22;34866;48.670;18.260;2023-01-23T01:34:50;39.20;2201.60
49052;DHT22;34866;48.670;18.260;2023-01-23T01:37:16;39.20;2201.60
49052;DHT22;34866;48.670;18.260;2023-01-23T01:39:42;39.20;2201.60
49052;DHT22;34866;48.670;18.260;2023-01-23T01:42:07;39.30;2201.60
49052;DHT22;34866;48.670;18.260;2023-01-23T01:44:55;39.20;2201.60
49052;DHT22;34866;48.670;18.260;2023-01-23T01:47:20;39.30;2201.60
49052;DHT22;34866;48.670;18.260;2023-01-23T01:49:47;39.30;2201.60
49052;DHT22;34866;48.670;18.260;2023-01-23T01:52:13;39.30;2201.60
49052;DHT22;34866;48.670;18.260;2023-01-23T01:54:46;64.00;2201.60
49052;DHT22;34866;48.670;18.260;2023-01-23T01:57:37;39.30;2201.60
49052;DHT22;34866;48.670;18.260;2023-01-23T02:00:13;39.30;2201.60
49052;DHT22;34866;48.670;18.260;2023-01-23T02:02:58;39.30;2201.60
49052;DHT22;34866;48.670;18.260;2023-01-23T02:05:28;39.30;2201.60
49052;DHT22;34866;48.670;18.260;2023-01-23T02:10:41;39.10;2201.60
49052;DHT22;34866;48.670;18.260;2023-01-23T02:16:27;39.10;2201.60
49052;DHT22;34866;48.670;18.260;2023-01-23T02:18:57;39.00;2201.60
49052;DHT22;34866;48.670;18.260;2023-01-23T02:21:26;38.80;2201.60
49052;DHT22;34866;48.670;18.260;2023-01-23T02:26:45;38.60;2201.60
49052;DHT22;34866;48.670;18.260;2023-01-23T02:29:12;38.70;2201.60
49052;DHT22;34866;48.670;18.260;2023-01-23T02:31:38;38.70;2201.60
49052;DHT22;34866;48.670;18.260;2023-01-23T02:34:04;38.60;2201.60
49052;DHT22;34866;48.670;18.260;2023-01-23T02:36:33;38.60;2201.60
49052;DHT22;34866;48.670;18.260;2023-01-23T02:39:18;38.50;2201.60
49052;DHT22;34866;48.670;18.260;2023-01-23T02:41:48;38.40;2201.60
49052;DHT22;34866;48.670;18.260;2023-01-23T02:47:01;38.50;2201.60
49052;DHT22;34866;48.670;18.260;2023-01-23T02:49:28;38.50;2201.60
49052;DHT22;34866;48.670;18.260;2023-01-23T02:51:56;38.70;2201.60
49052;DHT22;34866;48.670;18.260;2023-01-23T02:54:22;38.70;2201.60
49052;DHT22;34866;48.670;18.260;2023-01-23T02:56:48;38.60;2201.60
49052;DHT22;34866;48.670;18.260;2023-01-23T02:59:14;38.60;2201.60
49052;DHT22;34866;48.670;18.260;2023-01-23T03:02:01;38.70;2201.60
49052;DHT22;34866;48.670;18.260;2023-01-23T03:04:28;38.60;2201.60
49052;DHT22;34866;48.670;18.260;2023-01-23T03:06:54;38.70;2201.60
49052;DHT22;34866;48.670;18.260;2023-01-23T03:09:20;38.70;2201.60
49052;DHT22;34866;48.670;18.260;2023-01-23T03:11:47;38.80;2201.60
49052;DHT22;34866;48.670;18.260;2023-01-23T03:14:18;39.00;2201.60
49052;DHT22;34866;48.670;18.260;2023-01-23T03:16:44;39.00;2201.60
49052;DHT22;34866;48.670;18.260;2023-01-23T03:19:20;38.90;2201.60
49052;DHT22;34866;48.670;18.260;2023-01-23T03:21:47;38.80;2201.60
49052;DHT22;34866;48.670;18.260;2023-01-23T03:24:14;38.90;2201.60
49052;DHT22;34866;48.670;18.260;2023-01-23T03:26:42;38.90;2201.60
49052;DHT22;34866;48.670;18.260;2023-01-23T03:29:15;38.90;2201.60
49052;DHT22;34866;48.670;18.260;2023-01-23T03:32:00;39.00;2201.60
49052;DHT22;34866;48.670;18.260;2023-01-23T03:34:27;38.90;2201.60
49052;DHT22;34866;48.670;18.260;2023-01-23T03:36:53;38.90;2201.60
49052;DHT22;34866;48.670;18.260;2023-01-23T03:39:19;38.90;2201.60
49052;DHT22;34866;48.670;18.260;2023-01-23T03:42:03;39.00;2201.60
49052;DHT22;34866;48.670;18.260;2023-01-23T03:44:29;39.00;2201.60
49052;DHT22;34866;48.670;18.260;2023-01-23T03:46:55;39.10;2201.60
49052;DHT22;34866;48.670;18.260;2023-01-23T03:49:24;39.00;2201.60
49052;DHT22;34866;48.670;18.260;2023-01-23T03:51:49;39.00;2201.60
49052;DHT22;34866;48.670;18.260;2023-01-23T03:54:15;38.90;2201.60
49052;DHT22;34866;48.670;18.260;2023-01-23T03:56:44;38.90;2201.60
49052;DHT22;34866;48.670;18.260;2023-01-23T03:59:10;38.90;2201.60
49052;DHT22;34866;48.670;18.260;2023-01-23T04:01:36;38.80;2201.60
49052;DHT22;34866;48.670;18.260;2023-01-23T04:04:02;39.00;2201.60
49052;DHT22;34866;48.670;18.260;2023-01-23T04:06:28;38.90;2201.60
49052;DHT22;34866;48.670;18.260;2023-01-23T04:08:54;39.00;2201.60
49052;DHT22;34866;48.670;18.260;2023-01-23T04:11:21;39.10;2201.60
49052;DHT22;34866;48.670;18.260;2023-01-23T04:13:47;39.20;2201.60
49052;DHT22;34866;48.670;18.260;2023-01-23T04:16:13;39.10;2201.60
49052;DHT22;34866;48.670;18.260;2023-01-23T04:18:41;39.20;2201.60
49052;DHT22;34866;48.670;18.260;2023-01-23T04:21:07;39.20;2201.60
49052;DHT22;34866;48.670;18.260;2023-01-23T04:23:33;39.20;2201.60
49052;DHT22;34866;48.670;18.260;2023-01-23T04:25:59;39.20;2201.60
49052;DHT22;34866;48.670;18.260;2023-01-23T04:28:24;39.20;2201.60
49052;DHT22;34866;48.670;18.260;2023-01-23T04:30:51;39.10;2201.60
49052;DHT22;34866;48.670;18.260;2023-01-23T04:33:18;39.20;2201.60
49052;DHT22;34866;48.670;18.260;2023-01-23T04:35:55;39.10;2201.60
49052;DHT22;34866;48.670;18.260;2023-01-23T04:38:22;39.00;2201.60
49052;DHT22;34866;48.670;18.260;2023-01-23T04:40:49;38.90;2201.60
49052;DHT22;34866;48.670;18.260;2023-01-23T04:43:15;38.90;2201.60
49052;DHT22;34866;48.670;18.260;2023-01-23T04:45:41;38.80;2201.60
49052;DHT22;34866;48.670;18.260;2023-01-23T04:48:07;38.90;2201.60
49052;DHT22;34866;48.670;18.260;2023-01-23T04:50:32;38.90;2201.60
49052;DHT22;34866;48.670;18.260;2023-01-23T04:52:58;39.00;2201.60
49052;DHT22;34866;48.670;18.260;2023-01-23T04:55:24;38.90;2201.60
49052;DHT22;34866;48.670;18.260;2023-01-23T04:57:50;39.00;2201.60
49052;DHT22;34866;48.670;18.260;2023-01-23T05:00:16;39.00;2201.60
49052;DHT22;34866;48.670;18.260;2023-01-23T05:02:45;38.90;2201.60
49052;DHT22;34866;48.670;18.260;2023-01-23T05:05:11;38.90;2201.60
49052;DHT22;34866;48.670;18.260;2023-01-23T05:07:37;38.90;2201.60
49052;DHT22;34866;48.670;18.260;2023-01-23T05:10:03;38.90;2201.60
49052;DHT22;34866;48.670;18.260;2023-01-23T05:12:29;38.70;2201.60
49052;DHT22;34866;48.670;18.260;2023-01-23T05:14:54;38.50;2201.60
49052;DHT22;34866;48.670;18.260;2023-01-23T05:17:20;13.70;2201.60
49052;DHT22;34866;48.670;18.260;2023-01-23T05:19:47;13.60;2201.60
49052;DHT22;34866;48.670;18.260;2023-01-23T05:22:16;13.60;2201.60
49052;DHT22;34866;48.670;18.260;2023-01-23T05:24:43;13.50;2201.60
49052;DHT22;34866;48.670;18.260;2023-01-23T05:27:10;13.50;2201.60
49052;DHT22;34866;48.670;18.260;2023-01-23T05:29:36;13.60;2201.60
49052;DHT22;34866;48.670;18.260;2023-01-23T05:32:02;13.50;2201.60
49052;DHT22;34866;48.670;18.260;2023-01-23T05:34:28;13.70;2201.60
49052;DHT22;34866;48.670;18.260;2023-01-23T05:36:54;13.70;2201.60
49052;DHT22;34866;48.670;18.260;2023-01-23T05:39:19;13.70;2201.60
49052;DHT22;34866;48.670;18.260;2023-01-23T05:41:45;13.70;2201.60
49052;DHT22;34866;48.670;18.260;2023-01-23T05:44:11;13.70;2201.60
49052;DHT22;34866;48.670;18.260;2023-01-23T05:46:36;13.70;2201.60
49052;DHT22;34866;48.670;18.260;2023-01-23T05:49:02;38.40;2201.60
49052;DHT22;34866;48.670;18.260;2023-01-23T05:51:28;13.70;2201.60
49052;DHT22;34866;48.670;18.260;2023-01-23T05:54:01;13.60;2201.60
49052;DHT22;34866;48.670;18.260;2023-01-23T05:56:28;13.60;2201.60
49052;DHT22;34866;48.670;18.260;2023-01-23T05:58:54;13.50;2201.60
49052;DHT22;34866;48.670;18.260;2023-01-23T06:01:20;13.70;2201.60
49052;DHT22;34866;48.670;18.260;2023-01-23T06:03:46;13.70;2201.60
49052;DHT22;34866;48.670;18.260;2023-01-23T06:06:12;13.70;2201.60
49052;DHT22;34866;48.670;18.260;2023-01-23T06:08:38;13.60;2201.60
49052;DHT22;34866;48.670;18.260;2023-01-23T06:11:04;13.60;2201.60
49052;DHT22;34866;48.670;18.260;2023-01-23T06:13:30;13.60;2201.60
49052;DHT22;34866;48.670;18.260;2023-01-23T06:15:58;13.60;2201.60
49052;DHT22;34866;48.670;18.260;2023-01-23T06:18:24;13.70;2201.60
49052;DHT22;34866;48.670;18.260;2023-01-23T06:20:56;38.40;2201.60
49052;DHT22;34866;48.670;18.260;2023-01-23T06:23:22;13.70;2201.60
49052;DHT22;34866;48.670;18.260;2023-01-23T06:25:48;13.70;2201.60
49052;DHT22;34866;48.670;18.260;2023-01-23T06:28:13;13.70;2201.60
49052;DHT22;34866;48.670;18.260;2023-01-23T06:30:39;38.40;2201.60
49052;DHT22;34866;48.670;18.260;2023-01-23T06:33:06;13.70;2201.60
49052;DHT22;34866;48.670;18.260;2023-01-23T06:35:32;13.70;2201.60
49052;DHT22;34866;48.670;18.260;2023-01-23T06:37:57;13.70;2201.60
49052;DHT22;34866;48.670;18.260;2023-01-23T06:40:23;13.70;2201.60
49052;DHT22;34866;48.670;18.260;2023-01-23T06:42:48;13.60;2201.60
49052;DHT22;34866;48.670;18.260;2023-01-23T06:45:18;13.40;2201.60
49052;DHT22;34866;48.670;18.260;2023-01-23T06:47:44;13.50;2201.60
49052;DHT22;34866;48.670;18.260;2023-01-23T06:50:09;13.40;2201.60
49052;DHT22;34866;48.670;18.260;2023-01-23T06:52:35;13.40;2201.60
49052;DHT22;34866;48.670;18.260;2023-01-23T06:55:01;13.20;2201.60
49052;DHT22;34866;48.670;18.260;2023-01-23T06:57:26;13.20;2201.60
49052;DHT22;34866;48.670;18.260;2023-01-23T06:59:52;13.20;2201.60
49052;DHT22;34866;48.670;18.260;2023-01-23T07:02:18;13.30;2201.60
49052;DHT22;34866;48.670;18.260;2023-01-23T07:04:43;13.10;2201.60
49052;DHT22;34866;48.670;18.260;2023-01-23T07:07:09;13.10;2201.60
49052;DHT22;34866;48.670;18.260;2023-01-23T07:09:35;13.10;2201.60
49052;DHT22;34866;48.670;18.260;2023-01-23T07:12:00;13.00;2201.60
49052;DHT22;34866;48.670;18.260;2023-01-23T07:14:26;0.00;2201.60
49052;DHT22;34866;48.670;18.260;2023-01-23T07:16:53;0.00;2201.60
49052;DHT22;34866;48.670;18.260;2023-01-23T07:19:20;0.20;2201.60
49052;DHT22;34866;48.670;18.260;2023-01-23T07:21:47;0.20;2201.60
49052;DHT22;34866;48.670;18.260;2023-01-23T07:24:13;0.20;2201.60
49052;DHT22;34866;48.670;18.260;2023-01-23T07:26:48;0.30;2201.60
49052;DHT22;34866;48.670;18.260;2023-01-23T07:29:13;0.20;2201.60
49052;DHT22;34866;48.670;18.260;2023-01-23T07:31:39;0.20;2201.60
49052;DHT22;34866;48.670;18.260;2023-01-23T07:34:05;0.30;2201.60
49052;DHT22;34866;48.670;18.260;2023-01-23T07:36:30;0.30;2201.60
49052;DHT22;34866;48.670;18.260;2023-01-23T07:38:56;0.30;2201.60
49052;DHT22;34866;48.670;18.260;2023-01-23T07:41:23;0.30;2201.60
49052;DHT22;34866;48.670;18.260;2023-01-23T07:44:02;0.30;2201.60
49052;DHT22;34866;48.670;18.260;2023-01-23T07:46:28;0.40;2201.60
49052;DHT22;34866;48.670;18.260;2023-01-23T07:48:55;0.40;2201.60
49052;DHT22;34866;48.670;18.260;2023-01-23T07:51:21;0.40;2201.60
49052;DHT22;34866;48.670;18.260;2023-01-23T07:53:46;0.40;2201.60
49052;DHT22;34866;48.670;18.260;2023-01-23T07:56:12;0.50;2201.60
49052;DHT22;34866;48.670;18.260;2023-01-23T07:58:38;0.50;2201.60
49052;DHT22;34866;48.670;18.260;2023-01-23T08:01:09;0.50;2201.60
49052;DHT22;34866;48.670;18.260;2023-01-23T08:03:35;0.60;2201.60
49052;DHT22;34866;48.670;18.260;2023-01-23T08:06:01;0.50;2201.60
49052;DHT22;34866;48.670;18.260;2023-01-23T08:08:26;0.50;2201.60
49052;DHT22;34866;48.670;18.260;2023-01-23T08:10:52;0.60;2201.60
49052;DHT22;34866;48.670;18.260;2023-01-23T08:13:18;0.60;2201.60
49052;DHT22;34866;48.670;18.260;2023-01-23T08:15:44;0.60;2201.60
49052;DHT22;34866;48.670;18.260;2023-01-23T08:18:10;0.70;2201.60
49052;DHT22;34866;48.670;18.260;2023-01-23T08:20:36;0.80;2201.60
49052;DHT22;34866;48.670;18.260;2023-01-23T08:23:02;0.90;2201.60
49052;DHT22;34866;48.670;18.260;2023-01-23T08:25:28;25.70;2201.60
49052;DHT22;34866;48.670;18.260;2023-01-23T08:27:56;25.80;2201.60
49052;DHT22;34866;48.670;18.260;2023-01-23T08:30:31;26.00;2201.60
49052;DHT22;34866;48.670;18.260;2023-01-23T08:32:56;26.00;2201.60
49052;DHT22;34866;48.670;18.260;2023-01-23T08:35:24;26.00;2201.60
49052;DHT22;34866;48.670;18.260;2023-01-23T08:37:49;26.10;2201.60
49052;DHT22;34866;48.670;18.260;2023-01-23T08:40:16;26.10;2201.60
49052;DHT22;34866;48.670;18.260;2023-01-23T08:42:42;26.20;2124.80
49052;DHT22;34866;48.670;18.260;2023-01-23T08:45:08;26.20;2099.20
49052;DHT22;34866;48.670;18.260;2023-01-23T08:47:34;26.20;1945.60
49052;DHT22;34866;48.670;18.260;2023-01-23T08:50:04;26.30;2201.60
49052;DHT22;34866;48.670;18.260;2023-01-23T08:52:30;26.40;2201.60
49052;DHT22;34866;48.670;18.260;2023-01-23T08:54:57;26.50;2201.60
49052;DHT22;34866;48.670;18.260;2023-01-23T08:57:24;26.50;2201.60
49052;DHT22;34866;48.670;18.260;2023-01-23T08:59:55;51.20;2227.20
49052;DHT22;34866;48.670;18.260;2023-01-23T09:02:22;51.20;2227.20
49052;DHT22;34866;48.670;18.260;2023-01-23T09:04:48;51.30;2227.20
49052;DHT22;34866;48.670;18.260;2023-01-23T09:07:14;51.50;2227.20
49052;DHT22;34866;48.670;18.260;2023-01-23T09:09:39;51.60;2227.20
49052;DHT22;34866;48.670;18.260;2023-01-23T09:12:08;51.70;2227.20
49052;DHT22;34866;48.670;18.260;2023-01-23T09:14:34;51.80;2227.20
49052;DHT22;34866;48.670;18.260;2023-01-23T09:17:00;51.80;2227.20
49052;DHT22;34866;48.670;18.260;2023-01-23T09:19:25;52.10;2227.20
49052;DHT22;34866;48.670;18.260;2023-01-23T09:21:54;76.90;2227.20
49052;DHT22;34866;48.670;18.260;2023-01-23T09:24:27;77.20;2227.20
49052;DHT22;34866;48.670;18.260;2023-01-23T09:26:52;76.90;2227.20
49052;DHT22;34866;48.670;18.260;2023-01-23T09:29:18;77.00;1971.20
49052;DHT22;34866;48.670;18.260;2023-01-23T09:31:44;77.20;2227.20
49052;DHT22;34866;48.670;18.260;2023-01-23T09:34:09;77.30;2227.20
49052;DHT22;34866;48.670;18.260;2023-01-23T09:36:36;77.40;2227.20
49052;DHT22;34866;48.670;18.260;2023-01-23T09:39:02;77.50;2227.20
49052;DHT22;34866;48.670;18.260;2023-01-23T09:41:29;77.60;2227.20
49052;DHT22;34866;48.670;18.260;2023-01-23T09:46:53;102.40;2227.20
49052;DHT22;34866;48.670;18.260;2023-01-23T09:49:36;103.00;2227.20
49052;DHT22;34866;48.670;18.260;2023-01-23T09:52:18;102.90;2227.20
49052;DHT22;34866;48.670;18.260;2023-01-23T09:55:03;103.00;2227.20
49052;DHT22;34866;48.670;18.260;2023-01-23T09:57:52;103.20;2227.20
49052;DHT22;34866;48.670;18.260;2023-01-23T10:00:21;102.90;2227.20
49052;DHT22;34866;48.670;18.260;2023-01-23T10:02:54;102.80;2227.20
49052;DHT22;34866;48.670;18.260;2023-01-23T10:10:57;103.10;2227.20
49052;DHT22;34866;48.670;18.260;2023-01-23T10:16:29;128.10;2252.80
49052;DHT22;34866;48.670;18.260;2023-01-23T10:27:31;128.70;2252.80
49052;DHT22;34866;48.670;18.260;2023-01-23T10:30:02;153.90;2201.60
49052;DHT22;34866;48.670;18.260;2023-01-23T10:32:37;179.30;1049.60
49052;DHT22;34866;48.670;18.260;2023-01-23T10:35:38;179.50;6502.40
49052;DHT22;34866;48.670;18.260;2023-01-23T10:38:44;179.60;6502.40
49052;DHT22;34866;48.670;18.260;2023-01-23T10:41:14;179.80;6502.40
49052;DHT22;34866;48.670;18.260;2023-01-23T10:43:50;179.70;6502.40
49052;DHT22;34866;48.670;18.260;2023-01-23T10:46:22;180.00;6502.40
49052;DHT22;34866;48.670;18.260;2023-01-23T10:48:54;180.10;6502.40
49052;DHT22;34866;48.670;18.260;2023-01-23T10:54:25;230.80;6502.40
49052;DHT22;34866;48.670;18.260;2023-01-23T10:57:17;230.70;6502.40
49052;DHT22;34866;48.670;18.260;2023-01-23T11:00:43;256.60;6502.40
49052;DHT22;34866;48.670;18.260;2023-01-23T11:06:02;307.20;128.00
49052;DHT22;34866;48.670;18.260;2023-01-23T11:08:37;307.20;128.00
49052;DHT22;34866;48.670;18.260;2023-01-23T11:13:42;205.40;6502.40
49052;DHT22;34866;48.670;18.260;2023-01-23T11:16:14;180.10;6502.40
49052;DHT22;34866;48.670;18.260;2023-01-23T11:21:51;231.00;6502.40
49052;DHT22;34866;48.670;18.260;2023-01-23T11:24:35;230.70;6502.40
49052;DHT22;34866;48.670;18.260;2023-01-23T11:32:42;256.00;6502.40
49052;DHT22;34866;48.670;18.260;2023-01-23T11:35:19;256.70;6502.40
49052;DHT22;34866;48.670;18.260;2023-01-23T11:37:49;282.10;6528.00
49052;DHT22;34866;48.670;18.260;2023-01-23T11:40:18;282.50;6528.00
49052;DHT22;34866;48.670;18.260;2023-01-23T11:42:44;307.60;128.00
49052;DHT22;34866;48.670;18.260;2023-01-23T11:45:31;333.00;128.00
49052;DHT22;34866;48.670;18.260;2023-01-23T11:48:13;333.50;128.00
49052;DHT22;34866;48.670;18.260;2023-01-23T11:50:52;333.30;128.00
49052;DHT22;34866;48.670;18.260;2023-01-23T11:53:21;332.80;128.00
49052;DHT22;34866;48.670;18.260;2023-01-23T12:01:57;307.50;128.00
49052;DHT22;34866;48.670;18.260;2023-01-23T12:04:31;282.40;6528.00
49052;DHT22;34866;48.670;18.260;2023-01-23T12:07:27;307.80;128.00
49052;DHT22;34866;48.670;18.260;2023-01-23T12:27:26;307.30;128.00
49052;DHT22;34866;48.670;18.260;2023-01-23T12:39:19;281.90;6528.00
49052;DHT22;34866;48.670;18.260;2023-01-23T12:42:07;256.40;6502.40
49052;DHT22;34866;48.670;18.260;2023-01-23T12:47:43;256.40;6502.40
49052;DHT22;34866;48.670;18.260;2023-01-23T12:53:10;230.60;358.40
49052;DHT22;34866;48.670;18.260;2023-01-23T13:02:13;230.70;6502.40
49052;DHT22;34866;48.670;18.260;2023-01-23T13:05:05;230.60;6502.40
49052;DHT22;34866;48.670;18.260;2023-01-23T13:13:12;204.90;6502.40
49052;DHT22;34866;48.670;18.260;2023-01-23T13:15:38;204.80;6502.40
49052;DHT22;34866;48.670;18.260;2023-01-23T13:18:04;180.00;6502.40
49052;DHT22;34866;48.670;18.260;2023-01-23T13:23:51;179.90;6502.40
49052;DHT22;34866;48.670;18.260;2023-01-23T13:26:38;179.70;6502.40
49052;DHT22;34866;48.670;18.260;2023-01-23T13:29:04;179.60;6502.40
49052;DHT22;34866;48.670;18.260;2023-01-23T13:31:45;179.50;6502.40
49052;DHT22;34866;48.670;18.260;2023-01-23T13:36:50;179.80;6502.40
49052;DHT22;34866;48.670;18.260;2023-01-23T13:39:23;180.00;6502.40
49052;DHT22;34866;48.670;18.260;2023-01-23T13:52:44;179.90;6502.40
49052;DHT22;34866;48.670;18.260;2023-01-23T13:55:48;180.10;6502.40
49052;DHT22;34866;48.670;18.260;2023-01-23T13:58:32;180.00;6502.40
49052;DHT22;34866;48.670;18.260;2023-01-23T14:01:12;180.00;6502.40
49052;DHT22;34866;48.670;18.260;2023-01-23T14:04:04;179.40;6502.40
49052;DHT22;34866;48.670;18.260;2023-01-23T14:06:50;179.20;6502.40
49052;DHT22;34866;48.670;18.260;2023-01-23T14:09:27;154.20;6502.40
49052;DHT22;34866;48.670;18.260;2023-01-23T14:12:01;154.30;6502.40
49052;DHT22;34866;48.670;18.260;2023-01-23T14:14:39;154.00;6502.40
49052;DHT22;34866;48.670;18.260;2023-01-23T14:17:24;153.90;6502.40
49052;DHT22;34866;48.670;18.260;2023-01-23T14:20:00;153.80;128.00
49052;DHT22;34866;48.670;18.260;2023-01-23T14:22:30;153.80;486.40
49052;DHT22;34866;48.670;18.260;2023-01-23T14:24:56;153.70;665.60
49052;DHT22;34866;48.670;18.260;2023-01-23T14:27:37;153.60;1049.60
49052;DHT22;34866;48.670;18.260;2023-01-23T14:30:16;153.60;1049.60
49052;DHT22;34866;48.670;18.260;2023-01-23T14:32:42;153.60;1484.80
49052;DHT22;34866;48.670;18.260;2023-01-23T14:35:23;153.60;1280.00
49052;DHT22;34866;48.670;18.260;2023-01-23T14:37:49;128.80;1254.40
49052;DHT22;34866;48.670;18.260;2023-01-23T14:40:18;128.80;1408.00
49052;DHT22;34866;48.670;18.260;2023-01-23T14:42:45;128.90;1356.80
49052;DHT22;34866;48.670;18.260;2023-01-23T14:45:16;128.60;1561.60
49052;DHT22;34866;48.670;18.260;2023-01-23T14:47:43;128.60;2124.80
49052;DHT22;34866;48.670;18.260;2023-01-23T14:50:17;128.60;2150.40
49052;DHT22;34866;48.670;18.260;2023-01-23T14:52:44;128.30;2150.40
49052;DHT22;34866;48.670;18.260;2023-01-23T14:55:24;128.40;2252.80
49052;DHT22;34866;48.670;18.260;2023-01-23T14:57:51;128.20;2252.80
49052;DHT22;34866;48.670;18.260;2023-01-23T15:00:19;128.20;2252.80
49052;DHT22;34866;48.670;18.260;2023-01-23T15:02:46;128.40;2252.80
49052;DHT22;34866;48.670;18.260;2023-01-23T15:05:19;128.20;2252.80
49052;DHT22;34866;48.670;18.260;2023-01-23T15:13:13;103.20;2227.20
49052;DHT22;34866;48.670;18.260;2023-01-23T15:15:54;103.10;2227.20
49052;DHT22;34866;48.670;18.260;2023-01-23T15:18:24;102.90;2227.20
49052;DHT22;34866;48.670;18.260;2023-01-23T15:21:06;102.80;2227.20
49052;DHT22;34866;48.670;18.260;2023-01-23T15:23:37;102.70;2227.20
49052;DHT22;34866;48.670;18.260;2023-01-23T15:26:34;102.70;2227.20
49052;DHT22;34866;48.670;18.260;2023-01-23T15:29:14;102.50;2227.20
49052;DHT22;34866;48.670;18.260;2023-01-23T15:31:45;102.50;2227.20
49052;DHT22;34866;48.670;18.260;2023-01-23T15:34:33;102.40;2227.20
49052;DHT22;34866;48.670;18.260;2023-01-23T15:37:28;77.70;2227.20
49052;DHT22;34866;48.670;18.260;2023-01-23T15:40:01;77.70;2227.20
49052;DHT22;34866;48.670;18.260;2023-01-23T15:42:30;77.60;2227.20
49052;DHT22;34866;48.670;18.260;2023-01-23T15:45:01;77.70;2227.20
49052;DHT22;34866;48.670;18.260;2023-01-23T15:47:29;77.60;2227.20
49052;DHT22;34866;48.670;18.260;2023-01-23T15:49:55;77.70;2227.20
49052;DHT22;34866;48.670;18.260;2023-01-23T15:55:02;77.60;2227.20
49052;DHT22;34866;48.670;18.260;2023-01-23T15:57:28;77.50;2227.20
49052;DHT22;34866;48.670;18.260;2023-01-23T15:59:57;77.40;2227.20
49052;DHT22;34866;48.670;18.260;2023-01-23T16:02:24;77.50;2227.20
49052;DHT22;34866;48.670;18.260;2023-01-23T16:04:49;77.50;2227.20
49052;DHT22;34866;48.670;18.260;2023-01-23T16:07:24;77.30;2227.20
49052;DHT22;34866;48.670;18.260;2023-01-23T16:09:55;77.30;2227.20
49052;DHT22;34866;48.670;18.260;2023-01-23T16:12:26;77.20;2227.20
49052;DHT22;34866;48.670;18.260;2023-01-23T16:14:52;77.20;2227.20
49052;DHT22;34866;48.670;18.260;2023-01-23T16:17:18;77.10;2227.20
49052;DHT22;34866;48.670;18.260;2023-01-23T16:19:44;77.10;2227.20
49052;DHT22;34866;48.670;18.260;2023-01-23T16:22:12;77.00;2227.20
49052;DHT22;34866;48.670;18.260;2023-01-23T16:24:38;76.90;2227.20
49052;DHT22;34866;48.670;18.260;2023-01-23T16:27:16;76.80;2227.20
49052;DHT22;34866;48.670;18.260;2023-01-23T16:29:43;52.00;2227.20
49052;DHT22;34866;48.670;18.260;2023-01-23T16:32:09;51.80;2227.20
49052;DHT22;34866;48.670;18.260;2023-01-23T16:34:35;51.80;2227.20
49052;DHT22;34866;48.670;18.260;2023-01-23T16:37:01;51.70;2227.20
49052;DHT22;34866;48.670;18.260;2023-01-23T16:39:31;51.70;2227.20
49052;DHT22;34866;48.670;18.260;2023-01-23T16:41:58;51.60;2227.20
49052;DHT22;34866;48.670;18.260;2023-01-23T16:44:25;51.70;2227.20
49052;DHT22;34866;48.670;18.260;2023-01-23T16:46:52;51.60;2227.20
49052;DHT22;34866;48.670;18.260;2023-01-23T16:49:18;51.60;2227.20
49052;DHT22;34866;48.670;18.260;2023-01-23T16:51:56;51.70;2227.20
49052;DHT22;34866;48.670;18.260;2023-01-23T16:54:22;51.90;2227.20
49052;DHT22;34866;48.670;18.260;2023-01-23T16:56:49;51.80;2227.20
49052;DHT22;34866;48.670;18.260;2023-01-23T16:59:35;51.80;2227.20
49052;DHT22;34866;48.670;18.260;2023-01-23T17:02:21;51.60;2227.20
49052;DHT22;34866;48.670;18.260;2023-01-23T17:04:50;51.70;2227.20
49052;DHT22;34866;48.670;18.260;2023-01-23T17:07:18;51.60;2227.20